createdAt,value
2017-04-24T00:00:36.435Z,15.83
2017-04-24T00:01:35.870Z,7.73
2017-04-24T00:02:35.547Z,14.73
2017-04-24T00:03:35.207Z,6.50
2017-04-24T00:04:34.787Z,7.10
2017-04-24T00:05:34.246Z,10.20
2017-04-24T00:06:33.703Z,7.03
2017-04-24T00:07:33.204Z,12.82
2017-04-24T00:08:32.757Z,14.03
2017-04-24T00:09:32.593Z,6.67
2017-04-24T00:17:28.580Z,9.17
2017-04-24T00:18:27.995Z,5.58
2017-04-24T00:19:27.449Z,9.97
2017-04-24T00:20:26.972Z,11.57
2017-04-24T00:21:26.462Z,9.08
2017-04-24T00:22:26.696Z,4.40
2017-04-24T00:23:26.348Z,10.18
2017-04-24T00:24:25.823Z,8.97
2017-04-24T00:25:25.285Z,4.98
2017-04-24T00:26:24.767Z,9.50
2017-04-24T00:27:24.228Z,3.97
2017-04-24T00:28:23.675Z,11.18
2017-04-24T00:29:23.312Z,5.93
2017-04-24T00:30:22.754Z,5.57
2017-04-24T00:31:22.208Z,12.08
2017-04-24T00:32:23.312Z,11.35
2017-04-24T00:33:22.807Z,7.20
2017-04-24T00:34:22.304Z,6.23
2017-04-24T00:35:22.850Z,5.85
2017-04-24T00:36:22.298Z,10.10
2017-04-24T00:37:21.859Z,7.98
2017-04-24T00:38:21.403Z,6.50
2017-04-24T00:39:20.869Z,6.40
2017-04-24T00:40:20.354Z,9.07
2017-04-24T00:41:19.831Z,5.48
2017-04-24T00:42:20.040Z,6.63
2017-04-24T00:43:19.581Z,4.37
2017-04-24T00:44:19.055Z,8.92
2017-04-24T00:45:18.589Z,7.15
2017-04-24T00:46:20.915Z,5.27
2017-04-24T00:47:20.447Z,5.98
2017-04-24T00:48:20.163Z,6.23
2017-04-24T00:49:19.717Z,10.93
2017-04-24T00:50:19.324Z,5.45
2017-04-24T00:51:18.821Z,10.33
2017-04-24T00:52:18.316Z,3.80
2017-04-24T00:53:17.836Z,4.80
2017-04-24T00:54:18.228Z,6.65
2017-04-24T00:55:17.741Z,9.62
2017-04-24T00:56:17.328Z,9.75
2017-04-24T00:57:16.811Z,5.82
2017-04-24T00:58:16.314Z,10.52
2017-04-24T00:59:15.812Z,5.30
2017-04-24T01:00:15.552Z,13.13
2017-04-24T01:01:15.095Z,7.78
2017-04-24T01:02:14.655Z,11.55
2017-04-24T01:03:14.179Z,10.28
2017-04-24T01:04:13.732Z,4.02
2017-04-24T01:05:14.090Z,7.62
2017-04-24T01:06:13.592Z,9.70
2017-04-24T01:07:13.077Z,13.83
2017-04-24T01:08:12.575Z,8.30
2017-04-24T01:09:12.859Z,11.92
2017-04-24T01:10:12.384Z,10.75
2017-04-24T01:11:12.623Z,13.65
2017-04-24T01:12:12.099Z,9.15
2017-04-24T01:13:11.641Z,6.68
2017-04-24T01:14:11.257Z,7.90
2017-04-24T01:15:11.152Z,6.63
2017-04-24T01:16:10.603Z,10.55
2017-04-24T01:17:10.069Z,10.78
2017-04-24T01:18:10.360Z,9.42
2017-04-24T01:19:09.825Z,8.62
2017-04-24T01:20:10.139Z,7.43
2017-04-24T01:21:09.823Z,6.88
2017-04-24T01:22:09.345Z,8.58
2017-04-24T01:23:09.650Z,9.80
2017-04-24T01:24:09.843Z,7.53
2017-04-24T01:25:09.385Z,7.93
2017-04-24T01:26:08.865Z,14.30
2017-04-24T01:27:09.122Z,8.35
2017-04-24T01:28:08.615Z,5.95
2017-04-24T01:29:08.071Z,11.48
2017-04-24T01:30:07.524Z,5.37
2017-04-24T01:31:07.022Z,6.88
2017-04-24T01:32:06.527Z,6.63
2017-04-24T01:33:06.061Z,6.47
2017-04-24T01:34:05.590Z,8.53
2017-04-24T01:35:05.121Z,6.50
2017-04-24T01:36:04.620Z,4.80
2017-04-24T01:37:04.823Z,9.83
2017-04-24T01:38:04.662Z,10.62
2017-04-24T01:39:05.468Z,7.30
2017-04-24T01:40:05.800Z,8.47
2017-04-24T01:41:05.277Z,9.20
2017-04-24T01:42:05.543Z,5.17
2017-04-24T01:43:05.174Z,12.47
2017-04-24T01:44:05.385Z,6.05
2017-04-24T01:45:05.603Z,14.72
2017-04-24T01:46:05.835Z,7.98
2017-04-24T01:47:05.309Z,7.70
2017-04-24T01:48:05.619Z,7.30
2017-04-24T01:49:05.836Z,7.83
2017-04-24T01:50:06.044Z,10.12
2017-04-24T01:51:05.507Z,8.10
2017-04-24T01:52:05.157Z,6.33
2017-04-24T01:53:04.647Z,8.00
2017-04-24T01:54:04.458Z,8.98
2017-04-24T01:55:03.997Z,12.53
2017-04-24T01:56:03.504Z,9.95
2017-04-24T01:57:02.956Z,9.73
2017-04-24T01:58:02.436Z,11.78
2017-04-24T01:59:01.914Z,7.63
2017-04-24T02:00:02.450Z,6.45
2017-04-24T02:01:01.985Z,4.78
2017-04-24T02:02:01.491Z,8.20
2017-04-24T02:03:00.939Z,8.85
2017-04-24T02:04:00.376Z,7.15
2017-04-24T02:04:59.836Z,6.12
2017-04-24T02:05:59.510Z,7.22
2017-04-24T02:06:59.007Z,8.55
2017-04-24T02:07:58.510Z,6.32
2017-04-24T02:09:04.286Z,8.30
2017-04-24T02:10:03.896Z,6.45
2017-04-24T02:11:03.511Z,5.93
2017-04-24T02:12:03.028Z,12.52
2017-04-24T02:13:03.223Z,9.28
2017-04-24T02:14:03.493Z,9.77
2017-04-24T02:15:02.975Z,7.58
2017-04-24T02:16:02.491Z,10.37
2017-04-24T02:17:02.122Z,8.53
2017-04-24T02:18:02.376Z,13.25
2017-04-24T02:19:01.852Z,6.32
2017-04-24T02:20:01.414Z,8.28
2017-04-24T02:21:00.862Z,19.45
2017-04-24T02:22:00.365Z,9.72
2017-04-24T02:22:59.983Z,9.18
2017-04-24T02:23:59.482Z,13.50
2017-04-24T02:24:58.956Z,14.42
2017-04-24T02:25:58.424Z,9.93
2017-04-24T02:26:57.862Z,10.08
2017-04-24T02:27:57.296Z,6.47
2017-04-24T02:28:57.621Z,13.83
2017-04-24T02:29:57.118Z,8.67
2017-04-24T02:30:56.583Z,8.33
2017-04-24T02:31:56.787Z,7.17
2017-04-24T02:32:56.243Z,6.20
2017-04-24T02:33:55.711Z,9.12
2017-04-24T02:34:55.501Z,9.67
2017-04-24T02:35:55.691Z,7.65
2017-04-24T02:36:55.153Z,8.67
2017-04-24T02:37:54.638Z,10.83
2017-04-24T02:38:56.708Z,9.47
2017-04-24T02:39:56.510Z,9.30
2017-04-24T02:40:55.972Z,4.95
2017-04-24T02:41:55.428Z,10.35
2017-04-24T02:42:55.688Z,14.03
2017-04-24T02:43:55.118Z,12.72
2017-04-24T02:44:54.657Z,10.33
2017-04-24T02:45:54.469Z,9.13
2017-04-24T02:46:53.940Z,10.68
2017-04-24T02:47:54.135Z,15.45
2017-04-24T02:48:54.344Z,9.97
2017-04-24T02:49:53.813Z,8.32
2017-04-24T02:50:54.035Z,13.93
2017-04-24T02:51:53.513Z,8.20
2017-04-24T02:52:52.973Z,8.75
2017-04-24T02:53:52.443Z,9.13
2017-04-24T02:54:52.611Z,9.68
2017-04-24T02:55:52.051Z,8.57
2017-04-24T02:56:52.478Z,5.93
2017-04-24T02:57:51.880Z,12.28
2017-04-24T02:58:51.362Z,15.68
2017-04-24T02:59:51.545Z,9.27
2017-04-24T03:00:51.001Z,10.38
2017-04-24T03:01:50.471Z,9.23
2017-04-24T03:02:50.264Z,10.22
2017-04-24T03:03:50.440Z,8.57
2017-04-24T03:04:49.903Z,5.90
2017-04-24T03:05:49.334Z,9.63
2017-04-24T03:06:48.791Z,5.58
2017-04-24T03:07:48.303Z,7.52
2017-04-24T03:08:47.948Z,8.33
2017-04-24T03:09:47.392Z,10.10
2017-04-24T03:10:46.875Z,8.58
2017-04-24T03:11:46.349Z,8.47
2017-04-24T03:12:45.788Z,6.25
2017-04-24T03:13:45.240Z,13.47
2017-04-24T03:14:44.865Z,7.72
2017-04-24T03:15:44.386Z,10.12
2017-04-24T03:16:43.812Z,7.38
2017-04-24T03:17:43.252Z,8.47
2017-04-24T03:18:42.728Z,10.33
2017-04-24T03:19:42.191Z,11.02
2017-04-24T03:20:42.048Z,6.78
2017-04-24T03:21:41.492Z,6.88
2017-04-24T03:22:40.956Z,9.03
2017-04-24T03:23:41.249Z,9.43
2017-04-24T03:24:40.728Z,6.53
2017-04-24T03:25:40.478Z,6.60
2017-04-24T03:26:40.295Z,6.42
2017-04-24T03:27:39.732Z,8.18
2017-04-24T03:28:39.160Z,8.22
2017-04-24T03:29:39.404Z,10.75
2017-04-24T03:30:38.886Z,7.35
2017-04-24T03:31:38.329Z,5.37
2017-04-24T03:32:37.864Z,8.82
2017-04-24T03:33:37.310Z,3.68
2017-04-24T03:34:36.751Z,7.90
2017-04-24T03:35:36.255Z,7.83
2017-04-24T03:36:35.696Z,9.75
2017-04-24T03:37:35.144Z,11.42
2017-04-24T03:38:34.744Z,8.57
2017-04-24T03:39:34.188Z,10.67
2017-04-24T03:40:33.676Z,6.38
2017-04-24T03:41:33.136Z,9.30
2017-04-24T03:42:32.631Z,8.47
2017-04-24T03:43:32.060Z,10.92
2017-04-24T03:44:31.706Z,6.02
2017-04-24T03:45:31.175Z,6.10
2017-04-24T03:46:31.364Z,6.23
2017-04-24T03:47:30.829Z,6.32
2017-04-24T03:48:30.273Z,5.33
2017-04-24T03:49:30.511Z,6.05
2017-04-24T03:50:30.141Z,7.85
2017-04-24T03:51:29.581Z,7.80
2017-04-24T03:52:29.201Z,5.92
2017-04-24T03:53:28.657Z,7.55
2017-04-24T03:54:28.216Z,7.15
2017-04-24T03:55:27.672Z,5.18
2017-04-24T03:56:28.039Z,8.03
2017-04-24T03:57:28.202Z,3.13
2017-04-24T03:58:27.674Z,3.88
2017-04-24T03:59:27.407Z,4.38
2017-04-24T04:00:26.880Z,5.67
2017-04-24T04:01:26.382Z,7.20
2017-04-24T04:02:26.740Z,5.08
2017-04-24T04:03:26.283Z,6.25
2017-04-24T04:04:26.501Z,6.27
2017-04-24T04:05:26.712Z,11.05
2017-04-24T04:06:26.912Z,5.72
2017-04-24T04:07:26.429Z,3.25
2017-04-24T04:08:25.941Z,4.25
2017-04-24T04:09:25.409Z,6.22
2017-04-24T04:10:25.671Z,5.02
2017-04-24T04:11:25.096Z,5.47
2017-04-24T04:12:24.615Z,5.55
2017-04-24T04:13:25.144Z,5.28
2017-04-24T04:14:24.612Z,9.53
2017-04-24T04:15:24.825Z,3.47
2017-04-24T04:16:25.324Z,7.28
2017-04-24T04:17:24.767Z,17.97
2017-04-24T04:18:24.284Z,5.88
2017-04-24T04:19:23.741Z,4.82
2017-04-24T04:20:23.942Z,5.83
2017-04-24T04:21:24.187Z,3.88
2017-04-24T04:22:23.656Z,2.53
2017-04-24T04:23:23.891Z,11.38
2017-04-24T04:24:23.383Z,4.45
2017-04-24T04:25:22.964Z,5.75
2017-04-24T04:26:22.451Z,7.00
2017-04-24T04:27:22.657Z,7.92
2017-04-24T04:28:22.292Z,3.92
2017-04-24T04:29:21.967Z,4.72
2017-04-24T04:30:21.443Z,3.60
2017-04-24T04:31:21.661Z,2.95
2017-04-24T04:32:21.121Z,6.12
2017-04-24T04:33:20.580Z,4.70
2017-04-24T04:34:20.129Z,9.62
2017-04-24T04:35:19.778Z,4.02
2017-04-24T04:36:19.258Z,8.98
2017-04-24T04:37:18.748Z,6.00
2017-04-24T04:38:18.194Z,5.08
2017-04-24T04:39:17.670Z,4.62
2017-04-24T04:40:17.135Z,7.18
2017-04-24T04:41:16.937Z,3.42
2017-04-24T04:42:16.420Z,6.28
2017-04-24T04:43:15.904Z,4.30
2017-04-24T04:44:16.112Z,8.73
2017-04-24T04:45:16.313Z,4.33
2017-04-24T04:46:15.760Z,4.90
2017-04-24T04:47:15.456Z,7.65
2017-04-24T04:48:15.559Z,3.30
2017-04-24T04:49:15.015Z,5.67
2017-04-24T04:50:15.263Z,8.80
2017-04-24T04:51:14.676Z,8.20
2017-04-24T04:52:14.275Z,7.67
2017-04-24T04:53:13.976Z,3.87
2017-04-24T04:54:13.473Z,6.10
2017-04-24T04:55:13.705Z,11.93
2017-04-24T04:56:13.276Z,10.20
2017-04-24T04:57:12.704Z,8.48
2017-04-24T04:58:12.165Z,7.77
2017-04-24T04:59:11.651Z,6.13
2017-04-24T05:00:11.148Z,8.78
2017-04-24T05:01:10.648Z,4.10
2017-04-24T05:02:10.081Z,11.45
2017-04-24T05:03:10.308Z,4.62
2017-04-24T05:04:10.463Z,5.63
2017-04-24T05:05:10.116Z,9.63
2017-04-24T05:06:09.649Z,4.62
2017-04-24T05:07:09.208Z,6.02
2017-04-24T05:08:09.368Z,4.28
2017-04-24T05:09:08.832Z,5.37
2017-04-24T05:10:08.328Z,4.15
2017-04-24T05:11:07.939Z,6.58
2017-04-24T05:12:07.347Z,7.48
2017-04-24T05:13:06.796Z,6.25
2017-04-24T05:14:06.283Z,6.50
2017-04-24T05:15:06.508Z,8.17
2017-04-24T05:16:06.020Z,4.47
2017-04-24T05:17:05.810Z,7.42
2017-04-24T05:18:05.370Z,6.87
2017-04-24T05:19:04.841Z,12.43
2017-04-24T05:20:04.377Z,6.60
2017-04-24T05:21:04.595Z,4.73
2017-04-24T05:22:04.053Z,5.07
2017-04-24T05:23:03.656Z,8.37
2017-04-24T05:24:03.115Z,9.72
2017-04-24T05:25:02.674Z,7.32
2017-04-24T05:26:02.244Z,9.53
2017-04-24T05:27:02.205Z,5.70
2017-04-24T05:28:01.634Z,10.60
2017-04-24T05:29:01.164Z,5.60
2017-04-24T05:30:01.371Z,8.82
2017-04-24T05:31:01.584Z,8.75
2017-04-24T05:32:01.751Z,6.12
2017-04-24T05:33:01.187Z,6.38
2017-04-24T05:34:01.399Z,7.60
2017-04-24T05:35:01.639Z,5.27
2017-04-24T05:36:01.108Z,6.95
2017-04-24T05:37:00.540Z,4.75
2017-04-24T05:37:59.993Z,9.07
2017-04-24T05:39:00.183Z,7.08
2017-04-24T05:39:59.912Z,11.15
2017-04-24T05:40:59.387Z,5.32
2017-04-24T05:41:59.617Z,9.98
2017-04-24T05:42:59.073Z,7.10
2017-04-24T05:43:58.532Z,6.92
2017-04-24T05:44:58.013Z,6.68
2017-04-24T05:45:57.725Z,4.23
2017-04-24T05:46:57.175Z,9.27
2017-04-24T05:47:57.358Z,7.85
2017-04-24T05:48:56.854Z,11.68
2017-04-24T05:49:56.336Z,7.58
2017-04-24T05:50:55.804Z,6.73
2017-04-24T05:51:55.493Z,8.57
2017-04-24T05:52:55.032Z,6.65
2017-04-24T05:53:54.451Z,4.80
2017-04-24T05:54:54.644Z,10.77
2017-04-24T05:55:54.259Z,8.07
2017-04-24T05:56:54.425Z,9.82
2017-04-24T05:57:54.096Z,11.00
2017-04-24T05:58:53.556Z,6.48
2017-04-24T05:59:52.992Z,6.02
2017-04-24T06:00:52.766Z,8.43
2017-04-24T06:01:52.232Z,6.95
2017-04-24T06:02:51.695Z,6.43
2017-04-24T06:03:51.385Z,5.22
2017-04-24T06:04:50.896Z,8.87
2017-04-24T06:05:50.404Z,10.05
2017-04-24T06:06:51.179Z,8.68
2017-04-24T06:07:50.648Z,9.68
2017-04-24T06:08:50.143Z,7.90
2017-04-24T06:09:49.643Z,7.95
2017-04-24T06:10:49.863Z,7.02
2017-04-24T06:11:49.322Z,7.15
2017-04-24T06:12:48.994Z,10.08
2017-04-24T06:13:48.425Z,6.37
2017-04-24T06:14:47.913Z,6.37
2017-04-24T06:15:47.553Z,6.13
2017-04-24T06:16:47.756Z,7.52
2017-04-24T06:17:47.940Z,11.10
2017-04-24T06:18:47.377Z,4.28
2017-04-24T06:19:46.860Z,4.22
2017-04-24T06:20:46.331Z,8.48
2017-04-24T06:21:46.195Z,5.75
2017-04-24T06:22:45.663Z,4.77
2017-04-24T06:23:45.110Z,6.70
2017-04-24T06:24:44.578Z,5.30
2017-04-24T06:25:44.059Z,7.93
2017-04-24T06:26:43.501Z,10.97
2017-04-24T06:27:43.223Z,4.63
2017-04-24T06:28:43.416Z,6.68
2017-04-24T06:29:42.880Z,4.43
2017-04-24T06:30:42.363Z,8.22
2017-04-24T06:31:41.809Z,7.27
2017-04-24T06:32:42.033Z,4.27
2017-04-24T06:33:41.560Z,5.42
2017-04-24T06:34:40.987Z,5.60
2017-04-24T06:35:40.497Z,6.23
2017-04-24T06:36:40.683Z,5.07
2017-04-24T06:37:40.117Z,6.02
2017-04-24T06:38:39.559Z,8.38
2017-04-24T06:39:39.420Z,5.05
2017-04-24T06:40:38.957Z,8.48
2017-04-24T06:41:38.387Z,9.37
2017-04-24T06:42:38.593Z,7.17
2017-04-24T06:43:38.125Z,9.05
2017-04-24T06:44:37.588Z,7.92
2017-04-24T06:45:38.035Z,6.58
2017-04-24T06:46:37.544Z,7.27
2017-04-24T06:47:37.511Z,5.60
2017-04-24T06:48:37.721Z,14.20
2017-04-24T06:49:37.918Z,7.47
2017-04-24T06:50:37.347Z,5.98
2017-04-24T06:51:36.821Z,13.05
2017-04-24T06:52:37.079Z,10.38
2017-04-24T06:53:36.540Z,5.35
2017-04-24T06:54:36.016Z,10.40
2017-04-24T06:55:36.200Z,11.65
2017-04-24T06:56:36.576Z,8.02
2017-04-24T06:57:36.042Z,11.98
2017-04-24T06:58:35.480Z,8.95
2017-04-24T06:59:34.976Z,13.50
2017-04-24T07:00:34.463Z,8.32
2017-04-24T07:01:33.925Z,7.38
2017-04-24T07:02:33.839Z,6.32
2017-04-24T07:03:33.360Z,10.13
2017-04-24T07:04:32.825Z,10.32
2017-04-24T07:05:32.973Z,7.40
2017-04-24T07:06:32.453Z,8.22
2017-04-24T07:07:31.911Z,5.62
2017-04-24T07:08:32.172Z,6.25
2017-04-24T07:09:32.397Z,9.08
2017-04-24T07:10:31.847Z,12.05
2017-04-24T07:11:31.294Z,5.52
2017-04-24T07:12:30.845Z,6.90
2017-04-24T07:13:30.319Z,7.47
2017-04-24T07:14:30.638Z,6.33
2017-04-24T07:15:30.817Z,7.47
2017-04-24T07:16:30.737Z,7.67
2017-04-24T07:17:30.967Z,6.53
2017-04-24T07:18:30.438Z,13.22
2017-04-24T07:19:29.977Z,6.33
2017-04-24T07:20:29.443Z,8.77
2017-04-24T07:21:29.677Z,8.20
2017-04-24T07:22:29.131Z,9.70
2017-04-24T07:23:28.583Z,6.98
2017-04-24T07:24:28.065Z,7.60
2017-04-24T07:25:27.564Z,5.88
2017-04-24T07:26:27.004Z,6.83
2017-04-24T07:27:27.399Z,7.38
2017-04-24T07:28:26.873Z,10.12
2017-04-24T07:29:26.349Z,10.52
2017-04-24T07:30:25.843Z,7.40
2017-04-24T07:31:25.435Z,7.98
2017-04-24T07:32:24.904Z,6.97
2017-04-24T07:33:25.147Z,10.35
2017-04-24T07:34:24.604Z,6.40
2017-04-24T07:35:24.097Z,9.42
2017-04-24T07:36:23.604Z,6.95
2017-04-24T07:37:23.887Z,5.90
2017-04-24T07:38:23.384Z,7.23
2017-04-24T07:39:22.834Z,8.93
2017-04-24T07:40:22.311Z,6.68
2017-04-24T07:41:22.282Z,7.30
2017-04-24T07:42:21.825Z,7.82
2017-04-24T07:43:21.626Z,7.95
2017-04-24T07:44:21.060Z,6.72
2017-04-24T07:45:20.543Z,7.57
2017-04-24T07:46:20.012Z,8.27
2017-04-24T07:47:19.440Z,7.52
2017-04-24T07:48:18.868Z,9.62
2017-04-24T07:49:19.416Z,7.97
2017-04-24T07:50:18.867Z,10.65
2017-04-24T07:51:18.353Z,7.90
2017-04-24T07:52:17.873Z,6.50
2017-04-24T07:53:18.152Z,10.13
2017-04-24T07:54:17.651Z,7.55
2017-04-24T07:55:17.495Z,11.53
2017-04-24T07:56:17.676Z,9.50
2017-04-24T07:57:17.225Z,10.75
2017-04-24T07:58:16.726Z,9.43
2017-04-24T07:59:16.781Z,9.50
2017-04-24T08:00:16.352Z,8.02
2017-04-24T08:01:16.283Z,9.52
2017-04-24T08:02:16.648Z,7.98
2017-04-24T08:03:16.168Z,8.35
2017-04-24T08:04:15.672Z,7.77
2017-04-24T08:05:15.184Z,7.52
2017-04-24T08:06:15.451Z,8.55
2017-04-24T08:07:14.955Z,8.95
2017-04-24T08:08:14.459Z,11.08
2017-04-24T08:09:13.955Z,11.43
2017-04-24T08:10:13.479Z,9.25
2017-04-24T08:11:13.693Z,9.93
2017-04-24T08:12:13.384Z,11.13
2017-04-24T08:13:13.625Z,9.57
2017-04-24T08:14:13.169Z,9.97
2017-04-24T08:15:12.683Z,10.68
2017-04-24T08:16:12.217Z,10.12
2017-04-24T08:17:11.708Z,11.55
2017-04-24T08:18:11.456Z,10.55
2017-04-24T08:19:10.958Z,13.05
2017-04-24T08:20:10.619Z,10.13
2017-04-24T08:21:10.974Z,11.45
2017-04-24T08:22:11.056Z,11.48
2017-04-24T08:23:11.190Z,14.37
2017-04-24T08:24:11.298Z,12.73
2017-04-24T08:25:11.387Z,11.95
2017-04-24T08:26:11.415Z,16.98
2017-04-24T08:27:11.534Z,14.40
2017-04-24T08:28:12.543Z,11.30
2017-04-24T08:29:12.112Z,10.95
2017-04-24T08:30:11.670Z,16.40
2017-04-24T08:31:11.952Z,13.02
2017-04-24T08:32:11.494Z,13.08
2017-04-24T08:33:10.981Z,11.62
2017-04-24T08:34:10.497Z,12.97
2017-04-24T08:35:10.004Z,16.28
2017-04-24T08:36:09.519Z,11.80
2017-04-24T08:37:15.183Z,16.53
2017-04-24T08:38:14.703Z,16.45
2017-04-24T08:39:14.241Z,13.53
2017-04-24T08:40:14.467Z,13.73
2017-04-24T08:41:13.967Z,12.30
2017-04-24T08:42:13.508Z,11.43
2017-04-24T08:43:13.088Z,12.87
2017-04-24T08:44:12.606Z,12.62
2017-04-24T08:45:12.284Z,16.28
2017-04-24T08:46:11.821Z,15.55
2017-04-24T08:47:11.312Z,11.82
2017-04-24T08:48:10.813Z,14.80
2017-04-24T08:49:10.373Z,14.20
2017-04-24T08:50:10.561Z,12.80
2017-04-24T08:51:10.272Z,13.45
2017-04-24T08:52:10.503Z,11.52
2017-04-24T08:53:09.992Z,13.48
2017-04-24T08:54:09.546Z,13.77
2017-04-24T08:55:09.058Z,17.83
2017-04-24T08:56:09.409Z,15.42
2017-04-24T08:57:08.962Z,14.70
2017-04-24T08:58:08.467Z,13.30
2017-04-24T08:59:07.924Z,16.65
2017-04-24T09:00:07.469Z,15.00
2017-04-24T09:01:06.980Z,14.32
2017-04-24T09:02:06.587Z,14.75
2017-04-24T09:03:06.120Z,15.68
2017-04-24T09:04:05.639Z,14.67
2017-04-24T09:05:05.872Z,17.43
2017-04-24T09:06:05.364Z,14.77
2017-04-24T09:07:04.867Z,16.77
2017-04-24T09:08:04.608Z,13.78
2017-04-24T09:09:04.337Z,13.85
2017-04-24T09:10:03.890Z,12.33
2017-04-24T09:11:03.388Z,14.05
2017-04-24T09:12:03.641Z,14.43
2017-04-24T09:13:03.144Z,16.35
2017-04-24T09:14:03.508Z,15.55
2017-04-24T09:15:03.038Z,15.87
2017-04-24T09:16:02.543Z,13.45
2017-04-24T09:17:02.041Z,14.30
2017-04-24T09:18:02.292Z,14.97
2017-04-24T09:19:01.806Z,16.28
2017-04-24T09:20:01.495Z,15.13
2017-04-24T09:21:01.032Z,19.78
2017-04-24T09:22:00.500Z,17.52
2017-04-24T09:23:00.055Z,17.38
2017-04-24T09:24:00.310Z,16.60
2017-04-24T09:24:59.837Z,16.88
2017-04-24T09:25:59.548Z,17.07
2017-04-24T09:27:17.224Z,13.53
2017-04-24T09:28:38.484Z,13.13
2017-04-24T09:30:00.587Z,13.48
2017-04-24T09:31:01.568Z,16.57
2017-04-24T09:32:01.639Z,13.73
2017-04-24T09:33:01.201Z,22.08
2017-04-24T09:34:00.668Z,19.17
2017-04-24T09:35:00.962Z,13.75
2017-04-24T09:36:01.151Z,20.48
2017-04-24T09:37:01.349Z,17.13
2017-04-24T09:38:01.664Z,17.77
2017-04-24T09:39:01.824Z,21.38
2017-04-24T09:40:02.176Z,16.12
2017-04-24T09:41:02.686Z,15.87
2017-04-24T09:42:02.737Z,20.05
2017-04-24T09:43:03.554Z,13.68
2017-04-24T09:44:03.551Z,14.45
2017-04-24T09:45:03.931Z,15.43
2017-04-24T09:46:04.376Z,17.08
2017-04-24T09:47:05.078Z,15.60
2017-04-24T09:48:05.034Z,17.18
2017-04-24T09:49:04.983Z,19.68
2017-04-24T09:50:05.743Z,15.45
2017-04-24T09:51:06.086Z,14.27
2017-04-24T09:52:06.217Z,18.25
2017-04-24T09:53:06.205Z,16.60
2017-04-24T09:54:06.304Z,14.78
2017-04-24T09:55:06.498Z,14.23
2017-04-24T09:56:06.017Z,15.90
2017-04-24T09:57:06.240Z,15.97
2017-04-24T09:58:05.700Z,16.05
2017-04-24T09:59:18.292Z,15.57
2017-04-24T10:00:18.387Z,19.25
2017-04-24T10:01:19.524Z,14.55
2017-04-24T10:02:19.867Z,17.25
2017-04-24T10:03:20.588Z,18.72
2017-04-24T10:04:20.816Z,18.98
2017-04-24T10:05:20.334Z,26.42
2017-04-24T10:06:19.830Z,15.20
2017-04-24T10:07:19.335Z,15.47
2017-04-24T10:08:18.772Z,17.98
2017-04-24T10:09:18.197Z,14.60
2017-04-24T10:10:17.680Z,18.28
2017-04-24T10:11:17.175Z,16.10
2017-04-24T10:12:17.197Z,14.90
2017-04-24T10:13:16.668Z,19.00
2017-04-24T10:14:16.150Z,17.70
2017-04-24T10:15:15.619Z,16.22
2017-04-24T10:16:15.124Z,18.23
2017-04-24T10:17:14.699Z,16.75
2017-04-24T10:18:14.529Z,15.35
2017-04-24T10:19:13.994Z,14.25
2017-04-24T10:20:13.471Z,16.55
2017-04-24T10:21:12.936Z,14.68
2017-04-24T10:22:13.179Z,16.75
2017-04-24T10:23:12.709Z,14.25
2017-04-24T10:24:12.337Z,14.88
2017-04-24T10:25:11.825Z,16.12
2017-04-24T10:26:11.409Z,17.80
2017-04-24T10:27:10.879Z,17.93
2017-04-24T10:28:10.351Z,17.73
2017-04-24T10:29:09.823Z,18.30
2017-04-24T10:30:09.687Z,17.02
2017-04-24T10:31:09.165Z,17.10
2017-04-24T10:32:08.699Z,16.48
2017-04-24T10:33:08.898Z,15.27
2017-04-24T10:34:08.388Z,15.38
2017-04-24T10:35:07.848Z,17.45
2017-04-24T10:36:07.373Z,15.22
2017-04-24T10:37:06.831Z,14.70
2017-04-24T10:38:06.316Z,20.23
2017-04-24T10:39:06.144Z,15.10
2017-04-24T10:40:05.690Z,20.12
2017-04-24T10:41:05.193Z,15.25
2017-04-24T10:42:04.732Z,18.80
2017-04-24T10:43:04.325Z,17.70
2017-04-24T10:44:03.839Z,19.97
2017-04-24T10:45:03.346Z,20.25
2017-04-24T10:46:03.563Z,16.73
2017-04-24T10:47:03.031Z,17.70
2017-04-24T10:48:02.562Z,17.08
2017-04-24T10:49:02.023Z,19.67
2017-04-24T10:50:01.480Z,18.32
2017-04-24T10:51:00.967Z,14.62
2017-04-24T10:52:00.430Z,17.28
2017-04-24T10:53:00.635Z,17.30
2017-04-24T10:54:00.275Z,18.80
2017-04-24T10:54:59.908Z,15.77
2017-04-24T10:55:59.412Z,18.73
2017-04-24T10:56:58.944Z,15.95
2017-04-24T10:57:58.551Z,16.52
2017-04-24T10:58:58.052Z,18.73
2017-04-24T10:59:57.849Z,14.72
2017-04-24T11:00:57.373Z,17.02
2017-04-24T11:01:56.840Z,16.38
2017-04-24T11:02:56.259Z,17.92
2017-04-24T11:03:55.758Z,18.25
2017-04-24T11:04:55.226Z,17.47
2017-04-24T11:05:54.824Z,20.43
2017-04-24T11:06:54.305Z,17.47
2017-04-24T11:07:53.820Z,19.52
2017-04-24T11:08:53.316Z,17.28
2017-04-24T11:09:52.758Z,16.48
2017-04-24T11:10:52.264Z,21.08
2017-04-24T11:11:52.815Z,16.77
2017-04-24T11:12:52.299Z,21.10
2017-04-24T11:13:51.836Z,17.80
2017-04-24T11:14:51.309Z,17.15
2017-04-24T11:15:50.840Z,18.40
2017-04-24T11:16:50.298Z,19.22
2017-04-24T11:17:49.817Z,17.60
2017-04-24T11:18:49.291Z,15.15
2017-04-24T11:19:48.749Z,16.52
2017-04-24T11:20:48.943Z,20.48
2017-04-24T11:21:48.431Z,16.92
2017-04-24T11:22:47.924Z,17.35
2017-04-24T11:23:47.489Z,18.55
2017-04-24T11:24:46.962Z,17.98
2017-04-24T11:25:46.421Z,19.13
2017-04-24T11:26:46.641Z,15.82
2017-04-24T11:27:46.152Z,21.63
2017-04-24T11:28:45.657Z,18.53
2017-04-24T11:29:45.251Z,19.20
2017-04-24T11:30:44.701Z,18.72
2017-04-24T11:31:44.169Z,16.10
2017-04-24T11:32:43.609Z,17.05
2017-04-24T11:33:43.070Z,19.05
2017-04-24T11:34:42.606Z,18.50
2017-04-24T11:35:43.205Z,17.65
2017-04-24T11:36:42.699Z,17.42
2017-04-24T11:37:42.183Z,18.23
2017-04-24T11:38:41.629Z,18.20
2017-04-24T11:39:41.112Z,19.73
2017-04-24T11:40:40.547Z,18.18
2017-04-24T11:41:41.110Z,19.83
2017-04-24T11:42:41.365Z,17.87
2017-04-24T11:43:41.025Z,19.23
2017-04-24T11:44:40.580Z,17.92
2017-04-24T11:45:40.120Z,19.63
2017-04-24T11:46:39.691Z,18.52
2017-04-24T11:47:39.670Z,17.82
2017-04-24T11:48:39.172Z,18.28
2017-04-24T11:49:38.735Z,18.35
2017-04-24T11:50:38.192Z,19.15
2017-04-24T11:51:37.676Z,17.37
2017-04-24T11:52:37.117Z,20.75
2017-04-24T11:53:36.808Z,21.12
2017-04-24T11:54:36.297Z,18.78
2017-04-24T11:55:35.887Z,18.97
2017-04-24T11:56:35.312Z,17.80
2017-04-24T11:57:34.792Z,20.40
2017-04-24T11:58:34.324Z,21.18
2017-04-24T11:59:34.385Z,22.27
2017-04-24T12:00:33.899Z,19.47
2017-04-24T12:01:33.389Z,20.60
2017-04-24T12:02:32.835Z,17.47
2017-04-24T12:03:32.372Z,18.70
2017-04-24T12:04:31.833Z,18.28
2017-04-24T12:05:31.558Z,18.18
2017-04-24T12:06:31.030Z,20.05
2017-04-24T12:07:30.524Z,19.10
2017-04-24T12:08:30.202Z,21.18
2017-04-24T12:09:29.680Z,20.53
2017-04-24T12:10:29.177Z,18.82
2017-04-24T12:11:29.002Z,20.35
2017-04-24T12:12:28.481Z,18.55
2017-04-24T12:13:28.693Z,19.78
2017-04-24T12:14:28.156Z,17.97
2017-04-24T12:15:27.601Z,19.05
2017-04-24T12:16:27.172Z,19.10
2017-04-24T12:17:26.674Z,20.92
2017-04-24T12:18:26.180Z,19.67
2017-04-24T12:19:25.635Z,19.98
2017-04-24T12:20:25.098Z,19.67
2017-04-24T12:21:25.337Z,19.83
2017-04-24T12:22:24.810Z,18.35
2017-04-24T12:23:24.714Z,19.03
2017-04-24T12:24:24.223Z,18.43
2017-04-24T12:25:23.741Z,23.48
2017-04-24T12:26:23.211Z,17.85
2017-04-24T12:27:22.693Z,17.50
2017-04-24T12:28:22.153Z,21.70
2017-04-24T12:29:21.796Z,17.65
2017-04-24T12:30:21.260Z,18.88
2017-04-24T12:31:21.464Z,19.95
2017-04-24T12:32:25.081Z,18.53
2017-04-24T12:33:24.520Z,20.33
2017-04-24T12:34:24.038Z,17.92
2017-04-24T12:35:24.087Z,20.48
2017-04-24T12:36:23.547Z,18.72
2017-04-24T12:37:23.747Z,16.52
2017-04-24T12:38:23.273Z,17.40
2017-04-24T12:39:22.818Z,18.95
2017-04-24T12:40:22.578Z,16.28
2017-04-24T12:41:22.037Z,22.18
2017-04-24T12:42:21.469Z,18.95
2017-04-24T12:43:20.940Z,19.10
2017-04-24T12:44:20.400Z,19.38
2017-04-24T12:45:19.960Z,17.50
2017-04-24T12:46:19.560Z,17.55
2017-04-24T12:47:19.015Z,17.45
2017-04-24T12:48:18.508Z,16.92
2017-04-24T12:49:17.961Z,17.87
2017-04-24T12:50:17.472Z,17.90
2017-04-24T12:51:17.712Z,18.33
2017-04-24T12:52:18.165Z,17.75
2017-04-24T12:53:17.628Z,19.67
2017-04-24T12:54:17.824Z,17.23
2017-04-24T12:55:17.393Z,18.12
2017-04-24T12:56:16.921Z,18.73
2017-04-24T12:57:16.406Z,16.62
2017-04-24T12:58:16.246Z,17.98
2017-04-24T12:59:15.720Z,18.13
2017-04-24T13:00:15.670Z,18.93
2017-04-24T13:01:16.046Z,17.92
2017-04-24T13:02:16.332Z,17.85
2017-04-24T13:03:15.857Z,19.47
2017-04-24T13:04:16.145Z,18.03
2017-04-24T13:05:15.645Z,18.55
2017-04-24T13:06:15.260Z,19.43
2017-04-24T13:07:14.814Z,16.15
2017-04-24T13:08:14.338Z,18.45
2017-04-24T13:09:14.756Z,17.35
2017-04-24T13:10:15.099Z,16.08